sensor_id;sensor_type;location;lat;lon;timestamp;temperature;humidity
3360;DHT22;1693;49.602;11.046;2022-09-12T00:01:05;11.80;99.90
3360;DHT22;1693;49.602;11.046;2022-09-12T00:03:35;11.70;99.90
3360;DHT22;1693;49.602;11.046;2022-09-12T00:06:09;11.70;99.90
3360;DHT22;1693;49.602;11.046;2022-09-12T00:08:38;11.70;99.90
3360;DHT22;1693;49.602;11.046;2022-09-12T00:11:10;11.70;99.90
3360;DHT22;1693;49.602;11.046;2022-09-12T00:13:40;11.60;99.90
3360;DHT22;1693;49.602;11.046;2022-09-12T00:16:13;11.60;99.90
3360;DHT22;1693;49.602;11.046;2022-09-12T00:18:43;11.70;99.90
3360;DHT22;1693;49.602;11.046;2022-09-12T00:21:12;11.60;99.90
3360;DHT22;1693;49.602;11.046;2022-09-12T00:23:40;11.70;99.90
3360;DHT22;1693;49.602;11.046;2022-09-12T00:26:09;11.70;99.90
3360;DHT22;1693;49.602;11.046;2022-09-12T00:28:39;11.70;99.90
3360;DHT22;1693;49.602;11.046;2022-09-12T00:31:09;11.70;99.90
3360;DHT22;1693;49.602;11.046;2022-09-12T00:33:37;11.70;99.90
3360;DHT22;1693;49.602;11.046;2022-09-12T00:36:13;11.70;99.90
3360;DHT22;1693;49.602;11.046;2022-09-12T00:38:42;11.70;99.90
3360;DHT22;1693;49.602;11.046;2022-09-12T00:41:16;11.70;99.90
3360;DHT22;1693;49.602;11.046;2022-09-12T00:43:45;11.60;99.90
3360;DHT22;1693;49.602;11.046;2022-09-12T00:46:21;11.60;99.90
3360;DHT22;1693;49.602;11.046;2022-09-12T00:48:58;11.60;99.90
3360;DHT22;1693;49.602;11.046;2022-09-12T00:51:35;11.50;99.90
3360;DHT22;1693;49.602;11.046;2022-09-12T00:54:05;11.50;99.90
3360;DHT22;1693;49.602;11.046;2022-09-12T00:56:36;11.50;99.90
3360;DHT22;1693;49.602;11.046;2022-09-12T00:59:09;11.50;99.90
3360;DHT22;1693;49.602;11.046;2022-09-12T01:01:39;11.40;99.90
3360;DHT22;1693;49.602;11.046;2022-09-12T01:04:10;11.40;99.90
3360;DHT22;1693;49.602;11.046;2022-09-12T01:06:44;11.40;99.90
3360;DHT22;1693;49.602;11.046;2022-09-12T01:09:18;11.30;99.90
3360;DHT22;1693;49.602;11.046;2022-09-12T01:11:47;11.30;99.90
3360;DHT22;1693;49.602;11.046;2022-09-12T01:14:17;11.30;99.90
3360;DHT22;1693;49.602;11.046;2022-09-12T01:16:45;11.30;99.90
3360;DHT22;1693;49.602;11.046;2022-09-12T01:19:32;11.30;99.90
3360;DHT22;1693;49.602;11.046;2022-09-12T01:22:20;11.20;99.90
3360;DHT22;1693;49.602;11.046;2022-09-12T01:25:02;11.20;99.90
3360;DHT22;1693;49.602;11.046;2022-09-12T01:27:45;11.30;99.90
3360;DHT22;1693;49.602;11.046;2022-09-12T01:33:20;11.10;99.90
3360;DHT22;1693;49.602;11.046;2022-09-12T01:36:08;11.10;99.90
3360;DHT22;1693;49.602;11.046;2022-09-12T01:38:41;11.10;99.90
3360;DHT22;1693;49.602;11.046;2022-09-12T01:41:20;11.10;99.90
3360;DHT22;1693;49.602;11.046;2022-09-12T01:44:00;11.00;99.90
3360;DHT22;1693;49.602;11.046;2022-09-12T01:46:34;11.10;99.90
3360;DHT22;1693;49.602;11.046;2022-09-12T01:49:12;11.10;99.90
3360;DHT22;1693;49.602;11.046;2022-09-12T01:51:53;11.00;99.90
3360;DHT22;1693;49.602;11.046;2022-09-12T01:54:30;11.00;99.90
3360;DHT22;1693;49.602;11.046;2022-09-12T01:57:03;11.00;99.90
3360;DHT22;1693;49.602;11.046;2022-09-12T01:59:39;11.00;99.90
3360;DHT22;1693;49.602;11.046;2022-09-12T02:02:13;10.90;99.90
3360;DHT22;1693;49.602;11.046;2022-09-12T02:04:47;10.90;99.90
3360;DHT22;1693;49.602;11.046;2022-09-12T02:07:19;10.90;99.90
3360;DHT22;1693;49.602;11.046;2022-09-12T02:09:49;10.90;99.90
3360;DHT22;1693;49.602;11.046;2022-09-12T02:12:23;10.90;99.90
3360;DHT22;1693;49.602;11.046;2022-09-12T02:14:54;10.90;99.90
3360;DHT22;1693;49.602;11.046;2022-09-12T02:17:26;10.90;99.90
3360;DHT22;1693;49.602;11.046;2022-09-12T02:19:59;10.90;99.90
3360;DHT22;1693;49.602;11.046;2022-09-12T02:22:29;10.90;99.90
3360;DHT22;1693;49.602;11.046;2022-09-12T02:24:59;10.90;99.90
3360;DHT22;1693;49.602;11.046;2022-09-12T02:27:32;10.80;99.90
3360;DHT22;1693;49.602;11.046;2022-09-12T02:30:04;10.80;99.90
3360;DHT22;1693;49.602;11.046;2022-09-12T02:32:36;10.80;99.90
3360;DHT22;1693;49.602;11.046;2022-09-12T02:35:10;10.80;99.90
3360;DHT22;1693;49.602;11.046;2022-09-12T02:37:51;10.80;99.90
3360;DHT22;1693;49.602;11.046;2022-09-12T02:40:21;10.80;99.90
3360;DHT22;1693;49.602;11.046;2022-09-12T02:42:50;10.80;99.90
3360;DHT22;1693;49.602;11.046;2022-09-12T02:45:18;10.80;99.90
3360;DHT22;1693;49.602;11.046;2022-09-12T02:47:53;10.80;99.90
3360;DHT22;1693;49.602;11.046;2022-09-12T02:50:23;10.80;99.90
3360;DHT22;1693;49.602;11.046;2022-09-12T02:52:51;10.80;99.90
3360;DHT22;1693;49.602;11.046;2022-09-12T02:55:22;10.80;99.90
3360;DHT22;1693;49.602;11.046;2022-09-12T02:57:50;10.60;99.90
3360;DHT22;1693;49.602;11.046;2022-09-12T03:00:19;10.60;99.90
3360;DHT22;1693;49.602;11.046;2022-09-12T03:03:06;10.60;99.90
3360;DHT22;1693;49.602;11.046;2022-09-12T03:05:41;10.60;99.90
3360;DHT22;1693;49.602;11.046;2022-09-12T03:11:38;10.50;99.90
3360;DHT22;1693;49.602;11.046;2022-09-12T03:14:17;10.50;99.90
3360;DHT22;1693;49.602;11.046;2022-09-12T03:16:55;10.50;99.90
3360;DHT22;1693;49.602;11.046;2022-09-12T03:19:34;10.50;99.90
3360;DHT22;1693;49.602;11.046;2022-09-12T03:22:11;10.50;99.90
3360;DHT22;1693;49.602;11.046;2022-09-12T03:24:46;10.50;99.90
3360;DHT22;1693;49.602;11.046;2022-09-12T03:27:17;10.50;99.90
3360;DHT22;1693;49.602;11.046;2022-09-12T03:29:47;10.50;99.90
3360;DHT22;1693;49.602;11.046;2022-09-12T03:32:15;10.50;99.90
3360;DHT22;1693;49.602;11.046;2022-09-12T03:34:49;10.40;99.90
3360;DHT22;1693;49.602;11.046;2022-09-12T03:37:18;10.30;99.90
3360;DHT22;1693;49.602;11.046;2022-09-12T03:39:46;10.30;99.90
3360;DHT22;1693;49.602;11.046;2022-09-12T03:42:13;10.30;99.90
3360;DHT22;1693;49.602;11.046;2022-09-12T03:44:41;10.40;99.90
3360;DHT22;1693;49.602;11.046;2022-09-12T03:47:10;10.40;99.90
3360;DHT22;1693;49.602;11.046;2022-09-12T03:49:38;10.40;99.90
3360;DHT22;1693;49.602;11.046;2022-09-12T03:52:06;10.30;99.90
3360;DHT22;1693;49.602;11.046;2022-09-12T03:54:34;10.30;99.90
3360;DHT22;1693;49.602;11.046;2022-09-12T03:57:03;10.40;99.90
3360;DHT22;1693;49.602;11.046;2022-09-12T03:59:33;10.40;99.90
3360;DHT22;1693;49.602;11.046;2022-09-12T04:02:01;10.30;99.90
3360;DHT22;1693;49.602;11.046;2022-09-12T04:04:31;10.30;99.90
3360;DHT22;1693;49.602;11.046;2022-09-12T04:07:02;10.30;99.90
3360;DHT22;1693;49.602;11.046;2022-09-12T04:09:30;10.30;99.90
3360;DHT22;1693;49.602;11.046;2022-09-12T04:11:57;10.30;99.90
3360;DHT22;1693;49.602;11.046;2022-09-12T04:14:25;10.30;99.90
3360;DHT22;1693;49.602;11.046;2022-09-12T04:16:52;10.30;99.90
3360;DHT22;1693;49.602;11.046;2022-09-12T04:19:19;10.30;99.90
3360;DHT22;1693;49.602;11.046;2022-09-12T04:21:46;10.10;99.90
3360;DHT22;1693;49.602;11.046;2022-09-12T04:24:13;10.10;99.90
3360;DHT22;1693;49.602;11.046;2022-09-12T04:26:42;10.10;99.90
3360;DHT22;1693;49.602;11.046;2022-09-12T04:29:11;10.20;99.90
3360;DHT22;1693;49.602;11.046;2022-09-12T04:31:41;10.30;99.90
3360;DHT22;1693;49.602;11.046;2022-09-12T04:34:11;10.30;99.90
3360;DHT22;1693;49.602;11.046;2022-09-12T04:36:40;10.30;99.90
3360;DHT22;1693;49.602;11.046;2022-09-12T04:39:09;10.30;99.90
3360;DHT22;1693;49.602;11.046;2022-09-12T04:41:38;10.40;99.90
3360;DHT22;1693;49.602;11.046;2022-09-12T04:44:09;10.40;99.90
3360;DHT22;1693;49.602;11.046;2022-09-12T04:46:40;10.40;99.90
3360;DHT22;1693;49.602;11.046;2022-09-12T04:49:07;10.40;99.90
3360;DHT22;1693;49.602;11.046;2022-09-12T04:51:36;10.40;99.90
3360;DHT22;1693;49.602;11.046;2022-09-12T04:54:05;10.40;99.90
3360;DHT22;1693;49.602;11.046;2022-09-12T04:56:36;10.40;99.90
3360;DHT22;1693;49.602;11.046;2022-09-12T04:59:04;10.40;99.90
3360;DHT22;1693;49.602;11.046;2022-09-12T05:01:33;10.50;99.90
3360;DHT22;1693;49.602;11.046;2022-09-12T05:04:00;10.40;99.90
3360;DHT22;1693;49.602;11.046;2022-09-12T05:06:30;10.50;99.90
3360;DHT22;1693;49.602;11.046;2022-09-12T05:08:58;10.40;99.90
3360;DHT22;1693;49.602;11.046;2022-09-12T05:11:28;10.40;99.90
3360;DHT22;1693;49.602;11.046;2022-09-12T05:13:56;10.40;99.90
3360;DHT22;1693;49.602;11.046;2022-09-12T05:16:24;10.50;99.90
3360;DHT22;1693;49.602;11.046;2022-09-12T05:18:54;10.50;99.90
3360;DHT22;1693;49.602;11.046;2022-09-12T05:21:22;10.50;99.90
3360;DHT22;1693;49.602;11.046;2022-09-12T05:23:50;10.50;99.90
3360;DHT22;1693;49.602;11.046;2022-09-12T05:26:17;10.50;99.90
3360;DHT22;1693;49.602;11.046;2022-09-12T05:28:46;10.50;99.90
3360;DHT22;1693;49.602;11.046;2022-09-12T05:31:15;10.50;99.90
3360;DHT22;1693;49.602;11.046;2022-09-12T05:33:44;10.70;99.90
3360;DHT22;1693;49.602;11.046;2022-09-12T05:36:14;10.80;99.90
3360;DHT22;1693;49.602;11.046;2022-09-12T05:38:42;10.80;99.90
3360;DHT22;1693;49.602;11.046;2022-09-12T05:41:10;11.00;99.90
3360;DHT22;1693;49.602;11.046;2022-09-12T05:43:39;11.10;99.90
3360;DHT22;1693;49.602;11.046;2022-09-12T05:46:08;11.20;99.90
3360;DHT22;1693;49.602;11.046;2022-09-12T05:48:36;11.20;99.90
3360;DHT22;1693;49.602;11.046;2022-09-12T05:51:05;11.20;99.90
3360;DHT22;1693;49.602;11.046;2022-09-12T05:53:35;11.30;99.90
3360;DHT22;1693;49.602;11.046;2022-09-12T05:56:06;11.40;99.90
3360;DHT22;1693;49.602;11.046;2022-09-12T05:58:34;11.60;99.90
3360;DHT22;1693;49.602;11.046;2022-09-12T06:01:03;11.70;99.90
3360;DHT22;1693;49.602;11.046;2022-09-12T06:03:32;11.70;99.90
3360;DHT22;1693;49.602;11.046;2022-09-12T06:06:01;11.80;99.90
3360;DHT22;1693;49.602;11.046;2022-09-12T06:08:30;11.90;99.90
3360;DHT22;1693;49.602;11.046;2022-09-12T06:11:00;12.00;99.90
3360;DHT22;1693;49.602;11.046;2022-09-12T06:13:29;12.00;99.90
3360;DHT22;1693;49.602;11.046;2022-09-12T06:16:02;11.90;99.90
3360;DHT22;1693;49.602;11.046;2022-09-12T06:18:29;12.00;99.90
3360;DHT22;1693;49.602;11.046;2022-09-12T06:20:56;12.10;99.90
3360;DHT22;1693;49.602;11.046;2022-09-12T06:23:23;12.30;99.90
3360;DHT22;1693;49.602;11.046;2022-09-12T06:25:51;12.40;99.90
3360;DHT22;1693;49.602;11.046;2022-09-12T06:28:21;12.50;99.90
3360;DHT22;1693;49.602;11.046;2022-09-12T06:30:48;12.40;99.90
3360;DHT22;1693;49.602;11.046;2022-09-12T06:33:16;12.50;99.90
3360;DHT22;1693;49.602;11.046;2022-09-12T06:35:43;12.50;99.90
3360;DHT22;1693;49.602;11.046;2022-09-12T06:38:10;12.60;99.90
3360;DHT22;1693;49.602;11.046;2022-09-12T06:40:40;12.70;99.90
3360;DHT22;1693;49.602;11.046;2022-09-12T06:43:10;12.80;99.90
3360;DHT22;1693;49.602;11.046;2022-09-12T06:45:46;12.80;99.90
3360;DHT22;1693;49.602;11.046;2022-09-12T06:48:14;12.80;99.90
3360;DHT22;1693;49.602;11.046;2022-09-12T06:50:41;13.10;99.90
3360;DHT22;1693;49.602;11.046;2022-09-12T06:53:13;13.10;99.90
3360;DHT22;1693;49.602;11.046;2022-09-12T06:55:40;13.10;99.90
3360;DHT22;1693;49.602;11.046;2022-09-12T06:58:09;13.30;99.90
3360;DHT22;1693;49.602;11.046;2022-09-12T07:00:36;13.40;99.90
3360;DHT22;1693;49.602;11.046;2022-09-12T07:03:05;13.50;99.90
3360;DHT22;1693;49.602;11.046;2022-09-12T07:05:33;13.70;99.90
3360;DHT22;1693;49.602;11.046;2022-09-12T07:08:00;13.80;99.90
3360;DHT22;1693;49.602;11.046;2022-09-12T07:10:27;14.00;99.90
3360;DHT22;1693;49.602;11.046;2022-09-12T07:12:55;14.30;99.90
3360;DHT22;1693;49.602;11.046;2022-09-12T07:15:23;14.50;99.90
3360;DHT22;1693;49.602;11.046;2022-09-12T07:17:51;14.70;99.90
3360;DHT22;1693;49.602;11.046;2022-09-12T07:20:20;14.70;99.90
3360;DHT22;1693;49.602;11.046;2022-09-12T07:22:49;14.70;99.90
3360;DHT22;1693;49.602;11.046;2022-09-12T07:25:17;14.80;99.90
3360;DHT22;1693;49.602;11.046;2022-09-12T07:27:44;14.70;99.90
3360;DHT22;1693;49.602;11.046;2022-09-12T07:30:15;14.80;99.90
3360;DHT22;1693;49.602;11.046;2022-09-12T07:32:42;14.80;99.90
3360;DHT22;1693;49.602;11.046;2022-09-12T07:35:09;15.20;99.90
3360;DHT22;1693;49.602;11.046;2022-09-12T07:37:37;15.40;99.90
3360;DHT22;1693;49.602;11.046;2022-09-12T07:40:05;15.70;99.90
3360;DHT22;1693;49.602;11.046;2022-09-12T07:42:32;15.80;99.90
3360;DHT22;1693;49.602;11.046;2022-09-12T07:45:02;16.00;99.90
3360;DHT22;1693;49.602;11.046;2022-09-12T07:47:29;15.90;99.90
3360;DHT22;1693;49.602;11.046;2022-09-12T07:49:56;15.90;99.90
3360;DHT22;1693;49.602;11.046;2022-09-12T07:52:23;15.70;99.90
3360;DHT22;1693;49.602;11.046;2022-09-12T07:54:52;16.00;99.90
3360;DHT22;1693;49.602;11.046;2022-09-12T07:57:19;16.30;99.90
3360;DHT22;1693;49.602;11.046;2022-09-12T07:59:47;16.30;99.90
3360;DHT22;1693;49.602;11.046;2022-09-12T08:02:14;16.10;99.90
3360;DHT22;1693;49.602;11.046;2022-09-12T08:04:46;16.00;99.90
3360;DHT22;1693;49.602;11.046;2022-09-12T08:07:14;16.50;99.90
3360;DHT22;1693;49.602;11.046;2022-09-12T08:09:42;16.60;99.90
3360;DHT22;1693;49.602;11.046;2022-09-12T08:12:11;16.80;99.90
3360;DHT22;1693;49.602;11.046;2022-09-12T08:14:38;16.90;99.90
3360;DHT22;1693;49.602;11.046;2022-09-12T08:17:06;17.20;99.90
3360;DHT22;1693;49.602;11.046;2022-09-12T08:19:33;17.40;99.90
3360;DHT22;1693;49.602;11.046;2022-09-12T08:22:00;17.50;99.90
3360;DHT22;1693;49.602;11.046;2022-09-12T08:24:29;17.40;99.90
3360;DHT22;1693;49.602;11.046;2022-09-12T08:26:56;17.60;99.90
3360;DHT22;1693;49.602;11.046;2022-09-12T08:29:25;17.60;99.90
3360;DHT22;1693;49.602;11.046;2022-09-12T08:31:52;17.50;99.90
3360;DHT22;1693;49.602;11.046;2022-09-12T08:34:19;17.60;99.90
3360;DHT22;1693;49.602;11.046;2022-09-12T08:36:46;17.70;99.90
3360;DHT22;1693;49.602;11.046;2022-09-12T08:39:13;17.70;99.90
3360;DHT22;1693;49.602;11.046;2022-09-12T08:41:44;17.80;99.90
3360;DHT22;1693;49.602;11.046;2022-09-12T08:47:15;18.20;99.90
3360;DHT22;1693;49.602;11.046;2022-09-12T08:49:54;18.30;99.90
3360;DHT22;1693;49.602;11.046;2022-09-12T08:52:26;18.40;99.90
3360;DHT22;1693;49.602;11.046;2022-09-12T08:54:55;18.50;99.90
3360;DHT22;1693;49.602;11.046;2022-09-12T08:57:23;18.60;99.90
3360;DHT22;1693;49.602;11.046;2022-09-12T08:59:50;18.60;99.90
3360;DHT22;1693;49.602;11.046;2022-09-12T09:02:49;18.60;99.90
3360;DHT22;1693;49.602;11.046;2022-09-12T09:05:25;18.60;99.90
3360;DHT22;1693;49.602;11.046;2022-09-12T09:11:03;18.70;99.90
3360;DHT22;1693;49.602;11.046;2022-09-12T09:13:46;18.70;99.90
3360;DHT22;1693;49.602;11.046;2022-09-12T09:16:35;18.90;99.90
3360;DHT22;1693;49.602;11.046;2022-09-12T09:19:09;19.10;99.90
3360;DHT22;1693;49.602;11.046;2022-09-12T09:21:41;19.30;99.90
3360;DHT22;1693;49.602;11.046;2022-09-12T09:24:13;19.20;99.90
3360;DHT22;1693;49.602;11.046;2022-09-12T09:26:45;19.30;99.90
3360;DHT22;1693;49.602;11.046;2022-09-12T09:29:17;19.40;99.90
3360;DHT22;1693;49.602;11.046;2022-09-12T09:31:47;19.50;99.90
3360;DHT22;1693;49.602;11.046;2022-09-12T09:34:18;19.50;99.90
3360;DHT22;1693;49.602;11.046;2022-09-12T09:36:50;19.80;99.90
3360;DHT22;1693;49.602;11.046;2022-09-12T09:42:08;20.30;99.90
3360;DHT22;1693;49.602;11.046;2022-09-12T09:44:37;20.40;99.90
3360;DHT22;1693;49.602;11.046;2022-09-12T09:47:04;20.50;99.90
3360;DHT22;1693;49.602;11.046;2022-09-12T09:49:33;20.80;99.90
3360;DHT22;1693;49.602;11.046;2022-09-12T09:52:02;21.00;99.90
3360;DHT22;1693;49.602;11.046;2022-09-12T09:54:33;21.20;99.90
3360;DHT22;1693;49.602;11.046;2022-09-12T09:57:05;21.40;99.90
3360;DHT22;1693;49.602;11.046;2022-09-12T09:59:52;21.50;99.90
3360;DHT22;1693;49.602;11.046;2022-09-12T10:02:21;21.60;99.90
3360;DHT22;1693;49.602;11.046;2022-09-12T10:04:55;21.70;99.90
3360;DHT22;1693;49.602;11.046;2022-09-12T10:07:23;22.30;99.90
3360;DHT22;1693;49.602;11.046;2022-09-12T10:10:04;22.50;99.90
3360;DHT22;1693;49.602;11.046;2022-09-12T10:12:32;22.80;99.90
3360;DHT22;1693;49.602;11.046;2022-09-12T10:15:00;23.10;99.90
3360;DHT22;1693;49.602;11.046;2022-09-12T10:17:45;23.00;99.90
3360;DHT22;1693;49.602;11.046;2022-09-12T10:20:38;23.00;99.90
3360;DHT22;1693;49.602;11.046;2022-09-12T10:23:24;23.50;99.90
3360;DHT22;1693;49.602;11.046;2022-09-12T10:28:31;24.10;99.90
3360;DHT22;1693;49.602;11.046;2022-09-12T10:30:59;24.30;99.90
3360;DHT22;1693;49.602;11.046;2022-09-12T10:33:27;24.80;99.90
3360;DHT22;1693;49.602;11.046;2022-09-12T10:35:57;25.20;99.90
3360;DHT22;1693;49.602;11.046;2022-09-12T10:38:26;25.30;99.90
3360;DHT22;1693;49.602;11.046;2022-09-12T10:40:56;25.60;99.90
3360;DHT22;1693;49.602;11.046;2022-09-12T10:43:27;26.10;99.90
3360;DHT22;1693;49.602;11.046;2022-09-12T10:45:59;26.00;99.90
3360;DHT22;1693;49.602;11.046;2022-09-12T10:48:46;25.50;99.90
3360;DHT22;1693;49.602;11.046;2022-09-12T10:51:25;25.00;99.90
3360;DHT22;1693;49.602;11.046;2022-09-12T10:53:54;24.40;99.90
3360;DHT22;1693;49.602;11.046;2022-09-12T10:56:24;24.20;99.90
3360;DHT22;1693;49.602;11.046;2022-09-12T10:59:12;24.30;99.90
3360;DHT22;1693;49.602;11.046;2022-09-12T11:01:45;24.50;99.90
3360;DHT22;1693;49.602;11.046;2022-09-12T11:04:27;24.70;99.90
3360;DHT22;1693;49.602;11.046;2022-09-12T11:09:53;25.60;99.90
3360;DHT22;1693;49.602;11.046;2022-09-12T11:12:29;28.20;99.90
3360;DHT22;1693;49.602;11.046;2022-09-12T11:15:11;28.50;99.90
3360;DHT22;1693;49.602;11.046;2022-09-12T11:17:48;29.50;99.90
3360;DHT22;1693;49.602;11.046;2022-09-12T11:20:42;30.40;98.80
3360;DHT22;1693;49.602;11.046;2022-09-12T11:26:50;30.00;93.00
3360;DHT22;1693;49.602;11.046;2022-09-12T11:29:28;30.20;94.10
3360;DHT22;1693;49.602;11.046;2022-09-12T11:32:12;29.60;93.70
3360;DHT22;1693;49.602;11.046;2022-09-12T11:34:51;30.30;94.40
3360;DHT22;1693;49.602;11.046;2022-09-12T11:37:41;30.30;92.50
3360;DHT22;1693;49.602;11.046;2022-09-12T11:40:22;31.30;90.50
3360;DHT22;1693;49.602;11.046;2022-09-12T11:43:04;32.00;88.90
3360;DHT22;1693;49.602;11.046;2022-09-12T11:45:38;31.70;84.90
3360;DHT22;1693;49.602;11.046;2022-09-12T11:48:11;30.60;84.70
3360;DHT22;1693;49.602;11.046;2022-09-12T11:50:41;30.90;86.20
3360;DHT22;1693;49.602;11.046;2022-09-12T11:53:16;32.20;81.30
3360;DHT22;1693;49.602;11.046;2022-09-12T11:55:49;32.30;78.60
3360;DHT22;1693;49.602;11.046;2022-09-12T11:58:23;31.80;79.70
3360;DHT22;1693;49.602;11.046;2022-09-12T12:00:55;31.00;79.60
3360;DHT22;1693;49.602;11.046;2022-09-12T12:03:30;30.30;81.10
3360;DHT22;1693;49.602;11.046;2022-09-12T12:06:01;30.90;77.60
3360;DHT22;1693;49.602;11.046;2022-09-12T12:10:59;30.70;76.00
3360;DHT22;1693;49.602;11.046;2022-09-12T12:13:31;30.60;78.60
3360;DHT22;1693;49.602;11.046;2022-09-12T12:16:01;30.70;77.00
3360;DHT22;1693;49.602;11.046;2022-09-12T12:18:31;30.30;79.90
3360;DHT22;1693;49.602;11.046;2022-09-12T12:21:19;30.10;78.40
3360;DHT22;1693;49.602;11.046;2022-09-12T12:24:12;30.90;76.70
3360;DHT22;1693;49.602;11.046;2022-09-12T12:26:54;31.60;72.80
3360;DHT22;1693;49.602;11.046;2022-09-12T12:29:53;32.20;71.30
3360;DHT22;1693;49.602;11.046;2022-09-12T12:32:23;31.90;70.20
3360;DHT22;1693;49.602;11.046;2022-09-12T12:35:02;31.90;69.40
3360;DHT22;1693;49.602;11.046;2022-09-12T12:37:55;31.70;71.50
3360;DHT22;1693;49.602;11.046;2022-09-12T12:40:26;30.60;73.60
3360;DHT22;1693;49.602;11.046;2022-09-12T12:43:00;30.00;74.30
3360;DHT22;1693;49.602;11.046;2022-09-12T12:48:51;29.80;75.30
3360;DHT22;1693;49.602;11.046;2022-09-12T12:51:38;29.20;75.80
3360;DHT22;1693;49.602;11.046;2022-09-12T12:54:30;28.80;78.00
3360;DHT22;1693;49.602;11.046;2022-09-12T12:57:14;28.40;79.40
3360;DHT22;1693;49.602;11.046;2022-09-12T12:59:47;28.80;81.80
3360;DHT22;1693;49.602;11.046;2022-09-12T13:02:23;29.00;80.40
3360;DHT22;1693;49.602;11.046;2022-09-12T13:04:51;29.20;75.30
3360;DHT22;1693;49.602;11.046;2022-09-12T13:07:25;29.70;76.10
3360;DHT22;1693;49.602;11.046;2022-09-12T13:09:53;29.80;74.80
3360;DHT22;1693;49.602;11.046;2022-09-12T13:12:24;29.70;74.70
3360;DHT22;1693;49.602;11.046;2022-09-12T13:14:55;29.50;76.90
3360;DHT22;1693;49.602;11.046;2022-09-12T13:17:32;29.10;73.90
3360;DHT22;1693;49.602;11.046;2022-09-12T13:20:18;29.00;74.50
3360;DHT22;1693;49.602;11.046;2022-09-12T13:22:48;28.90;78.80
3360;DHT22;1693;49.602;11.046;2022-09-12T13:25:22;29.20;77.00
3360;DHT22;1693;49.602;11.046;2022-09-12T13:28:13;29.40;76.40
3360;DHT22;1693;49.602;11.046;2022-09-12T13:30:43;29.00;77.20
3360;DHT22;1693;49.602;11.046;2022-09-12T13:33:22;28.70;75.10
3360;DHT22;1693;49.602;11.046;2022-09-12T13:36:16;28.60;76.30
3360;DHT22;1693;49.602;11.046;2022-09-12T13:38:59;28.10;78.40
3360;DHT22;1693;49.602;11.046;2022-09-12T13:41:42;27.90;77.10
3360;DHT22;1693;49.602;11.046;2022-09-12T13:44:13;28.10;76.60
3360;DHT22;1693;49.602;11.046;2022-09-12T13:46:41;28.40;76.00
3360;DHT22;1693;49.602;11.046;2022-09-12T13:49:18;28.30;77.00
3360;DHT22;1693;49.602;11.046;2022-09-12T13:51:55;28.10;76.10
3360;DHT22;1693;49.602;11.046;2022-09-12T13:54:24;27.60;77.20
3360;DHT22;1693;49.602;11.046;2022-09-12T13:56:53;26.90;78.80
3360;DHT22;1693;49.602;11.046;2022-09-12T13:59:20;26.80;81.90
3360;DHT22;1693;49.602;11.046;2022-09-12T14:01:47;26.80;80.40
3360;DHT22;1693;49.602;11.046;2022-09-12T14:04:19;27.00;83.20
3360;DHT22;1693;49.602;11.046;2022-09-12T14:07:10;27.20;80.70
3360;DHT22;1693;49.602;11.046;2022-09-12T14:09:40;27.20;80.00
3360;DHT22;1693;49.602;11.046;2022-09-12T14:12:18;27.20;80.60
3360;DHT22;1693;49.602;11.046;2022-09-12T14:14:50;27.40;79.60
3360;DHT22;1693;49.602;11.046;2022-09-12T14:17:26;27.20;80.40
3360;DHT22;1693;49.602;11.046;2022-09-12T14:19:59;27.00;81.70
3360;DHT22;1693;49.602;11.046;2022-09-12T14:22:29;26.60;81.90
3360;DHT22;1693;49.602;11.046;2022-09-12T14:24:57;27.00;82.10
3360;DHT22;1693;49.602;11.046;2022-09-12T14:27:27;27.10;80.50
3360;DHT22;1693;49.602;11.046;2022-09-12T14:30:00;27.20;82.10
3360;DHT22;1693;49.602;11.046;2022-09-12T14:32:27;27.90;84.30
3360;DHT22;1693;49.602;11.046;2022-09-12T14:35:18;28.80;84.90
3360;DHT22;1693;49.602;11.046;2022-09-12T14:37:47;29.60;76.40
3360;DHT22;1693;49.602;11.046;2022-09-12T14:40:17;30.30;74.10
3360;DHT22;1693;49.602;11.046;2022-09-12T14:42:45;30.50;73.60
3360;DHT22;1693;49.602;11.046;2022-09-12T14:45:17;31.00;72.10
3360;DHT22;1693;49.602;11.046;2022-09-12T14:47:50;31.20;69.10
3360;DHT22;1693;49.602;11.046;2022-09-12T14:50:23;31.10;68.30
3360;DHT22;1693;49.602;11.046;2022-09-12T14:53:18;31.10;68.30
3360;DHT22;1693;49.602;11.046;2022-09-12T14:55:51;31.30;69.10
3360;DHT22;1693;49.602;11.046;2022-09-12T14:58:26;31.00;67.50
3360;DHT22;1693;49.602;11.046;2022-09-12T15:00:59;31.10;67.10
3360;DHT22;1693;49.602;11.046;2022-09-12T15:06:01;31.60;70.10
3360;DHT22;1693;49.602;11.046;2022-09-12T15:08:29;32.30;64.30
3360;DHT22;1693;49.602;11.046;2022-09-12T15:10:58;32.00;61.50
3360;DHT22;1693;49.602;11.046;2022-09-12T15:13:28;32.20;60.90
3360;DHT22;1693;49.602;11.046;2022-09-12T15:15:58;31.60;63.10
3360;DHT22;1693;49.602;11.046;2022-09-12T15:18:27;31.50;64.20
3360;DHT22;1693;49.602;11.046;2022-09-12T15:21:00;31.60;62.70
3360;DHT22;1693;49.602;11.046;2022-09-12T15:23:35;32.00;61.80
3360;DHT22;1693;49.602;11.046;2022-09-12T15:26:05;31.60;63.20
3360;DHT22;1693;49.602;11.046;2022-09-12T15:28:33;32.40;62.60
3360;DHT22;1693;49.602;11.046;2022-09-12T15:31:05;33.00;60.00
3360;DHT22;1693;49.602;11.046;2022-09-12T15:33:34;33.70;59.50
3360;DHT22;1693;49.602;11.046;2022-09-12T15:36:02;34.80;59.40
3360;DHT22;1693;49.602;11.046;2022-09-12T15:38:41;34.70;59.80
3360;DHT22;1693;49.602;11.046;2022-09-12T15:41:12;34.70;57.30
3360;DHT22;1693;49.602;11.046;2022-09-12T15:43:40;35.50;57.90
3360;DHT22;1693;49.602;11.046;2022-09-12T15:46:09;36.40;58.00
3360;DHT22;1693;49.602;11.046;2022-09-12T15:48:37;35.30;56.90
3360;DHT22;1693;49.602;11.046;2022-09-12T15:51:10;35.60;57.10
3360;DHT22;1693;49.602;11.046;2022-09-12T15:53:41;34.90;54.90
3360;DHT22;1693;49.602;11.046;2022-09-12T15:56:10;35.60;56.40
3360;DHT22;1693;49.602;11.046;2022-09-12T15:58:37;35.90;56.00
3360;DHT22;1693;49.602;11.046;2022-09-12T16:01:05;35.20;55.30
3360;DHT22;1693;49.602;11.046;2022-09-12T16:03:32;35.50;55.80
3360;DHT22;1693;49.602;11.046;2022-09-12T16:06:02;35.00;56.30
3360;DHT22;1693;49.602;11.046;2022-09-12T16:08:35;34.60;58.90
3360;DHT22;1693;49.602;11.046;2022-09-12T16:11:10;35.30;59.00
3360;DHT22;1693;49.602;11.046;2022-09-12T16:13:41;35.20;54.70
3360;DHT22;1693;49.602;11.046;2022-09-12T16:16:09;35.00;56.50
3360;DHT22;1693;49.602;11.046;2022-09-12T16:18:38;35.30;55.60
3360;DHT22;1693;49.602;11.046;2022-09-12T16:21:05;35.40;55.50
3360;DHT22;1693;49.602;11.046;2022-09-12T16:23:33;35.70;56.00
3360;DHT22;1693;49.602;11.046;2022-09-12T16:26:01;35.90;57.10
3360;DHT22;1693;49.602;11.046;2022-09-12T16:28:32;35.80;56.80
3360;DHT22;1693;49.602;11.046;2022-09-12T16:31:02;36.00;56.50
3360;DHT22;1693;49.602;11.046;2022-09-12T16:33:31;35.80;57.10
3360;DHT22;1693;49.602;11.046;2022-09-12T16:36:03;35.40;56.60
3360;DHT22;1693;49.602;11.046;2022-09-12T16:38:34;34.40;58.60
3360;DHT22;1693;49.602;11.046;2022-09-12T16:41:06;33.20;60.00
3360;DHT22;1693;49.602;11.046;2022-09-12T16:43:36;31.50;60.10
3360;DHT22;1693;49.602;11.046;2022-09-12T16:46:09;30.40;65.20
3360;DHT22;1693;49.602;11.046;2022-09-12T16:48:45;29.40;67.00